TimeEDT,TemperatureF,Dew PointF,Humidity,Sea Level PressureIn,VisibilityMPH,Wind Direction,Wind SpeedMPH,Gust SpeedMPH,PrecipitationIn,Events,Conditions,WindDirDegrees,DateUTC
12:53 AM,75.0,73.0,94,29.87,10.0,South,3.5,-,N/A,,Overcast,170,2013-06-30 04:53:00
1:53 AM,75.0,73.0,94,29.86,10.0,South,5.8,-,N/A,,Overcast,190,2013-06-30 05:53:00
2:53 AM,73.9,73.0,97,29.85,10.0,South,4.6,-,N/A,,Mostly Cloudy,170,2013-06-30 06:53:00
3:53 AM,73.9,73.0,97,29.84,10.0,South,5.8,-,N/A,,Scattered Clouds,170,2013-06-30 07:53:00
4:53 AM,75.0,73.9,96,29.84,10.0,South,6.9,-,N/A,,Mostly Cloudy,180,2013-06-30 08:53:00
5:53 AM,75.0,73.0,94,29.85,10.0,South,5.8,-,N/A,,Mostly Cloudy,180,2013-06-30 09:53:00
6:53 AM,75.0,73.9,96,29.86,10.0,South,4.6,-,N/A,,Scattered Clouds,180,2013-06-30 10:53:00
7:53 AM,77.0,75.0,94,29.86,10.0,South,5.8,-,N/A,,Scattered Clouds,180,2013-06-30 11:53:00
8:53 AM,81.0,75.9,85,29.88,10.0,SSW,9.2,-,N/A,,Scattered Clouds,200,2013-06-30 12:53:00
9:53 AM,84.0,75.9,76,29.88,10.0,South,10.4,-,N/A,,Scattered Clouds,180,2013-06-30 13:53:00
10:53 AM,86.0,73.9,67,29.86,10.0,SW,11.5,-,N/A,,Scattered Clouds,230,2013-06-30 14:53:00
11:53 AM,89.1,75.0,63,29.86,10.0,South,16.1,19.6,N/A,,Mostly Cloudy,190,2013-06-30 15:53:00
12:44 PM,87.8,32.0,14,29.86,10.0,SSW,18.4,23.0,N/A,Thunderstorm,Thunderstorm,200,2013-06-30 16:44:00
12:53 PM,87.1,82.9,87,29.89,0.8,West,23.0,33.4,0.00,Rain-Thunderstorm,Heavy Thunderstorms and Rain,260,2013-06-30 16:53:00
12:57 PM,75.2,73.4,94,29.89,0.5,West,18.4,33.4,0.26,Fog-Rain-Thunderstorm,Heavy Thunderstorms and Rain,260,2013-06-30 16:57:00
1:05 PM,75.2,75.2,100,29.89,2.0,West,10.4,25.3,0.35,Rain-Thunderstorm,Light Thunderstorms and Rain,270,2013-06-30 17:05:00
1:11 PM,75.2,75.2,100,29.88,8.0,WNW,4.6,19.6,0.35,Thunderstorm,Overcast,290,2013-06-30 17:11:00
1:21 PM,77.0,77.0,100,29.88,10.0,SW,3.5,-,0.35,Rain-Thunderstorm,Light Thunderstorms and Rain,220,2013-06-30 17:21:00
1:35 PM,78.8,77.0,94,29.87,10.0,Calm,Calm,-,0.35,,Overcast,0,2013-06-30 17:35:00
1:53 PM,79.0,75.9,90,29.87,10.0,Calm,Calm,-,0.35,,Overcast,0,2013-06-30 17:53:00
2:53 PM,84.0,75.9,76,29.86,10.0,Variable,5.8,-,N/A,,Overcast,0,2013-06-30 18:53:00
3:10 PM,75.2,71.6,89,29.88,8.0,WSW,10.4,-,0.00,Rain-Thunderstorm,Light Thunderstorms and Rain,240,2013-06-30 19:10:00
3:37 PM,77.0,71.6,83,29.89,10.0,West,5.8,-,0.00,,Overcast,270,2013-06-30 19:37:00
3:53 PM,77.0,71.1,82,29.89,10.0,WSW,3.5,-,0.00,,Overcast,240,2013-06-30 19:53:00
4:53 PM,75.0,72.0,90,29.90,10.0,South,12.7,-,0.00,Rain,Light Rain,180,2013-06-30 20:53:00
5:53 PM,75.0,73.9,96,29.88,8.0,South,6.9,-,0.04,Rain,Rain,170,2013-06-30 21:53:00
6:53 PM,75.0,73.9,96,29.87,10.0,SSE,4.6,-,0.01,,Overcast,160,2013-06-30 22:53:00
7:53 PM,75.0,73.9,96,29.88,10.0,SE,12.7,-,0.00,,Overcast,140,2013-06-30 23:53:00
8:17 PM,75.2,73.4,94,29.88,10.0,SE,12.7,-,N/A,,Overcast,130,2013-07-01 00:17:00
8:53 PM,75.0,73.9,96,29.88,10.0,SSE,6.9,-,N/A,,Mostly Cloudy,150,2013-07-01 00:53:00
9:47 PM,75.2,73.4,94,29.88,10.0,SSE,8.1,-,N/A,,Mostly Cloudy,150,2013-07-01 01:47:00
9:53 PM,75.0,73.9,96,29.87,10.0,SSE,8.1,-,N/A,,Mostly Cloudy,160,2013-07-01 01:53:00
10:53 PM,75.0,73.0,94,29.91,10.0,South,5.8,-,N/A,,Overcast,170,2013-07-01 02:53:00
11:53 PM,73.9,73.0,97,29.91,10.0,SSE,4.6,-,0.00,,Overcast,160,2013-07-01 03:53:00